sensor_id;sensor_type;location;lat;lon;timestamp;P1;durP1;ratioP1;P2;durP2;ratioP2
10947;SDS011;5526;42.070;24.752;2024-02-26T00:00:42;24.15;;;21.67;;
10947;SDS011;5526;42.070;24.752;2024-02-26T00:03:11;23.27;;;20.92;;
10947;SDS011;5526;42.070;24.752;2024-02-26T00:05:38;23.25;;;20.80;;
10947;SDS011;5526;42.070;24.752;2024-02-26T00:08:07;26.08;;;22.77;;
10947;SDS011;5526;42.070;24.752;2024-02-26T00:10:34;24.80;;;22.20;;
10947;SDS011;5526;42.070;24.752;2024-02-26T00:13:01;23.63;;;21.10;;
10947;SDS011;5526;42.070;24.752;2024-02-26T00:15:28;22.08;;;19.42;;
10947;SDS011;5526;42.070;24.752;2024-02-26T00:17:56;23.55;;;20.55;;
10947;SDS011;5526;42.070;24.752;2024-02-26T00:20:23;24.90;;;22.25;;
10947;SDS011;5526;42.070;24.752;2024-02-26T00:22:50;29.52;;;24.90;;
10947;SDS011;5526;42.070;24.752;2024-02-26T00:25:18;33.60;;;26.55;;
10947;SDS011;5526;42.070;24.752;2024-02-26T00:27:46;32.05;;;27.92;;
10947;SDS011;5526;42.070;24.752;2024-02-26T00:30:13;32.58;;;28.77;;
10947;SDS011;5526;42.070;24.752;2024-02-26T00:32:40;32.65;;;28.10;;
10947;SDS011;5526;42.070;24.752;2024-02-26T00:35:07;31.23;;;27.90;;
10947;SDS011;5526;42.070;24.752;2024-02-26T00:37:36;31.33;;;26.40;;
10947;SDS011;5526;42.070;24.752;2024-02-26T00:40:03;32.53;;;27.25;;
10947;SDS011;5526;42.070;24.752;2024-02-26T00:42:32;34.25;;;30.67;;
10947;SDS011;5526;42.070;24.752;2024-02-26T00:44:59;38.03;;;32.75;;
10947;SDS011;5526;42.070;24.752;2024-02-26T00:47:26;37.45;;;33.47;;
10947;SDS011;5526;42.070;24.752;2024-02-26T00:49:53;39.03;;;34.10;;
10947;SDS011;5526;42.070;24.752;2024-02-26T00:52:20;39.90;;;34.03;;
10947;SDS011;5526;42.070;24.752;2024-02-26T00:54:47;60.63;;;45.60;;
10947;SDS011;5526;42.070;24.752;2024-02-26T00:57:14;43.22;;;35.40;;
10947;SDS011;5526;42.070;24.752;2024-02-26T00:59:43;42.00;;;34.25;;
10947;SDS011;5526;42.070;24.752;2024-02-26T01:02:10;38.13;;;33.90;;
10947;SDS011;5526;42.070;24.752;2024-02-26T01:04:37;37.65;;;32.78;;
10947;SDS011;5526;42.070;24.752;2024-02-26T01:07:04;37.90;;;32.83;;
10947;SDS011;5526;42.070;24.752;2024-02-26T01:09:31;37.35;;;32.63;;
10947;SDS011;5526;42.070;24.752;2024-02-26T01:11:58;33.97;;;29.05;;
10947;SDS011;5526;42.070;24.752;2024-02-26T01:14:25;33.03;;;29.45;;
10947;SDS011;5526;42.070;24.752;2024-02-26T01:16:54;33.45;;;29.85;;
10947;SDS011;5526;42.070;24.752;2024-02-26T01:19:21;31.80;;;28.40;;
10947;SDS011;5526;42.070;24.752;2024-02-26T01:21:48;31.73;;;28.42;;
10947;SDS011;5526;42.070;24.752;2024-02-26T01:24:15;30.42;;;27.17;;
10947;SDS011;5526;42.070;24.752;2024-02-26T01:26:42;30.42;;;27.27;;
10947;SDS011;5526;42.070;24.752;2024-02-26T01:29:09;31.30;;;27.88;;
10947;SDS011;5526;42.070;24.752;2024-02-26T01:31:36;31.35;;;28.02;;
10947;SDS011;5526;42.070;24.752;2024-02-26T01:34:04;29.42;;;26.42;;
10947;SDS011;5526;42.070;24.752;2024-02-26T01:36:31;31.00;;;26.45;;
10947;SDS011;5526;42.070;24.752;2024-02-26T01:38:59;29.27;;;26.13;;
10947;SDS011;5526;42.070;24.752;2024-02-26T01:41:28;27.63;;;24.08;;
10947;SDS011;5526;42.070;24.752;2024-02-26T01:43:55;26.00;;;23.17;;
10947;SDS011;5526;42.070;24.752;2024-02-26T01:46:22;27.05;;;24.23;;
10947;SDS011;5526;42.070;24.752;2024-02-26T01:48:50;27.40;;;24.40;;
10947;SDS011;5526;42.070;24.752;2024-02-26T01:51:18;26.15;;;22.90;;
10947;SDS011;5526;42.070;24.752;2024-02-26T01:53:46;26.83;;;24.13;;
10947;SDS011;5526;42.070;24.752;2024-02-26T01:56:13;27.05;;;24.15;;
10947;SDS011;5526;42.070;24.752;2024-02-26T01:58:41;24.33;;;21.85;;
10947;SDS011;5526;42.070;24.752;2024-02-26T02:01:09;25.95;;;23.05;;
10947;SDS011;5526;42.070;24.752;2024-02-26T02:03:37;27.80;;;24.85;;
10947;SDS011;5526;42.070;24.752;2024-02-26T02:06:04;26.45;;;23.33;;
10947;SDS011;5526;42.070;24.752;2024-02-26T02:08:34;28.42;;;23.85;;
10947;SDS011;5526;42.070;24.752;2024-02-26T02:11:02;25.73;;;22.98;;
10947;SDS011;5526;42.070;24.752;2024-02-26T02:13:29;25.05;;;22.45;;
10947;SDS011;5526;42.070;24.752;2024-02-26T02:15:56;26.55;;;23.75;;
10947;SDS011;5526;42.070;24.752;2024-02-26T02:18:24;27.52;;;24.52;;
10947;SDS011;5526;42.070;24.752;2024-02-26T02:20:52;28.83;;;25.73;;
10947;SDS011;5526;42.070;24.752;2024-02-26T02:23:21;27.75;;;25.05;;
10947;SDS011;5526;42.070;24.752;2024-02-26T02:25:48;28.58;;;25.42;;
10947;SDS011;5526;42.070;24.752;2024-02-26T02:28:16;28.88;;;25.90;;
10947;SDS011;5526;42.070;24.752;2024-02-26T02:30:43;29.77;;;26.73;;
10947;SDS011;5526;42.070;24.752;2024-02-26T02:33:10;29.13;;;26.02;;
10947;SDS011;5526;42.070;24.752;2024-02-26T02:35:37;30.20;;;26.85;;
10947;SDS011;5526;42.070;24.752;2024-02-26T02:38:06;30.38;;;26.77;;
10947;SDS011;5526;42.070;24.752;2024-02-26T02:40:33;29.67;;;26.60;;
10947;SDS011;5526;42.070;24.752;2024-02-26T02:43:00;30.38;;;27.30;;
10947;SDS011;5526;42.070;24.752;2024-02-26T02:45:27;28.88;;;25.85;;
10947;SDS011;5526;42.070;24.752;2024-02-26T02:47:55;29.67;;;26.58;;
10947;SDS011;5526;42.070;24.752;2024-02-26T02:50:22;29.95;;;26.90;;
10947;SDS011;5526;42.070;24.752;2024-02-26T02:52:49;29.80;;;26.80;;
10947;SDS011;5526;42.070;24.752;2024-02-26T02:55:17;31.17;;;26.60;;
10947;SDS011;5526;42.070;24.752;2024-02-26T02:57:45;30.05;;;26.90;;
10947;SDS011;5526;42.070;24.752;2024-02-26T03:00:12;28.75;;;25.83;;
10947;SDS011;5526;42.070;24.752;2024-02-26T03:02:39;29.85;;;26.13;;
10947;SDS011;5526;42.070;24.752;2024-02-26T03:05:08;29.80;;;26.63;;
10947;SDS011;5526;42.070;24.752;2024-02-26T03:07:35;38.60;;;31.27;;
10947;SDS011;5526;42.070;24.752;2024-02-26T03:10:02;33.55;;;29.95;;
10947;SDS011;5526;42.070;24.752;2024-02-26T03:12:31;33.70;;;28.65;;
10947;SDS011;5526;42.070;24.752;2024-02-26T03:15:00;31.77;;;27.13;;
10947;SDS011;5526;42.070;24.752;2024-02-26T03:17:28;30.83;;;27.52;;
10947;SDS011;5526;42.070;24.752;2024-02-26T03:19:55;29.98;;;26.75;;
10947;SDS011;5526;42.070;24.752;2024-02-26T03:22:22;30.00;;;26.90;;
10947;SDS011;5526;42.070;24.752;2024-02-26T03:24:49;29.55;;;26.35;;
10947;SDS011;5526;42.070;24.752;2024-02-26T03:27:16;27.23;;;24.33;;
10947;SDS011;5526;42.070;24.752;2024-02-26T03:29:45;28.88;;;25.63;;
10947;SDS011;5526;42.070;24.752;2024-02-26T03:32:13;27.67;;;24.75;;
10947;SDS011;5526;42.070;24.752;2024-02-26T03:34:40;27.95;;;24.98;;
10947;SDS011;5526;42.070;24.752;2024-02-26T03:37:07;31.27;;;28.10;;
10947;SDS011;5526;42.070;24.752;2024-02-26T03:39:36;32.03;;;28.80;;
10947;SDS011;5526;42.070;24.752;2024-02-26T03:42:03;33.15;;;29.23;;
10947;SDS011;5526;42.070;24.752;2024-02-26T03:44:30;31.77;;;28.52;;
10947;SDS011;5526;42.070;24.752;2024-02-26T03:46:59;30.70;;;27.55;;
10947;SDS011;5526;42.070;24.752;2024-02-26T03:49:26;32.60;;;28.80;;
10947;SDS011;5526;42.070;24.752;2024-02-26T03:51:53;33.00;;;29.40;;
10947;SDS011;5526;42.070;24.752;2024-02-26T03:54:20;31.83;;;28.52;;
10947;SDS011;5526;42.070;24.752;2024-02-26T03:56:47;31.48;;;27.95;;
10947;SDS011;5526;42.070;24.752;2024-02-26T03:59:14;30.88;;;27.67;;
10947;SDS011;5526;42.070;24.752;2024-02-26T04:01:44;32.83;;;29.27;;
10947;SDS011;5526;42.070;24.752;2024-02-26T04:04:14;33.30;;;29.75;;
10947;SDS011;5526;42.070;24.752;2024-02-26T04:06:44;34.28;;;30.38;;
10947;SDS011;5526;42.070;24.752;2024-02-26T04:09:11;35.88;;;32.08;;
10947;SDS011;5526;42.070;24.752;2024-02-26T04:11:39;35.05;;;31.27;;
10947;SDS011;5526;42.070;24.752;2024-02-26T04:14:06;33.75;;;29.95;;
10947;SDS011;5526;42.070;24.752;2024-02-26T04:16:33;34.33;;;30.63;;
10947;SDS011;5526;42.070;24.752;2024-02-26T04:19:00;36.50;;;32.65;;
10947;SDS011;5526;42.070;24.752;2024-02-26T04:21:29;35.70;;;31.90;;
10947;SDS011;5526;42.070;24.752;2024-02-26T04:23:56;36.30;;;31.73;;
10947;SDS011;5526;42.070;24.752;2024-02-26T04:26:26;37.08;;;32.22;;
10947;SDS011;5526;42.070;24.752;2024-02-26T04:28:54;36.92;;;32.97;;
10947;SDS011;5526;42.070;24.752;2024-02-26T04:31:21;35.60;;;31.75;;
10947;SDS011;5526;42.070;24.752;2024-02-26T04:33:48;36.08;;;32.03;;
10947;SDS011;5526;42.070;24.752;2024-02-26T04:36:15;35.33;;;30.35;;
10947;SDS011;5526;42.070;24.752;2024-02-26T04:38:43;35.15;;;31.00;;
10947;SDS011;5526;42.070;24.752;2024-02-26T04:41:11;36.05;;;32.00;;
10947;SDS011;5526;42.070;24.752;2024-02-26T04:43:38;36.50;;;32.25;;
10947;SDS011;5526;42.070;24.752;2024-02-26T04:46:07;36.55;;;32.70;;
10947;SDS011;5526;42.070;24.752;2024-02-26T04:48:34;39.40;;;33.85;;
10947;SDS011;5526;42.070;24.752;2024-02-26T04:51:01;38.67;;;34.47;;
10947;SDS011;5526;42.070;24.752;2024-02-26T04:53:29;37.85;;;33.25;;
10947;SDS011;5526;42.070;24.752;2024-02-26T04:55:57;37.55;;;32.55;;
10947;SDS011;5526;42.070;24.752;2024-02-26T04:58:24;37.08;;;33.08;;
10947;SDS011;5526;42.070;24.752;2024-02-26T05:00:51;35.25;;;31.70;;
10947;SDS011;5526;42.070;24.752;2024-02-26T05:03:18;36.95;;;32.15;;
10947;SDS011;5526;42.070;24.752;2024-02-26T05:05:45;36.40;;;32.15;;
10947;SDS011;5526;42.070;24.752;2024-02-26T05:08:12;34.97;;;30.92;;
10947;SDS011;5526;42.070;24.752;2024-02-26T05:10:39;32.85;;;29.48;;
10947;SDS011;5526;42.070;24.752;2024-02-26T05:13:09;34.45;;;29.05;;
10947;SDS011;5526;42.070;24.752;2024-02-26T05:15:36;30.83;;;27.90;;
10947;SDS011;5526;42.070;24.752;2024-02-26T05:18:04;31.63;;;27.90;;
10947;SDS011;5526;42.070;24.752;2024-02-26T05:20:32;32.50;;;28.90;;
10947;SDS011;5526;42.070;24.752;2024-02-26T05:23:01;34.83;;;28.17;;
10947;SDS011;5526;42.070;24.752;2024-02-26T05:25:29;29.90;;;26.75;;
10947;SDS011;5526;42.070;24.752;2024-02-26T05:27:56;29.65;;;26.48;;
10947;SDS011;5526;42.070;24.752;2024-02-26T05:30:24;26.83;;;24.05;;
10947;SDS011;5526;42.070;24.752;2024-02-26T05:32:52;26.70;;;23.98;;
10947;SDS011;5526;42.070;24.752;2024-02-26T05:35:19;27.17;;;24.25;;
10947;SDS011;5526;42.070;24.752;2024-02-26T05:37:46;28.85;;;24.48;;
10947;SDS011;5526;42.070;24.752;2024-02-26T05:40:13;25.42;;;22.65;;
10947;SDS011;5526;42.070;24.752;2024-02-26T05:42:40;27.23;;;22.45;;
10947;SDS011;5526;42.070;24.752;2024-02-26T05:45:10;24.70;;;21.42;;
10947;SDS011;5526;42.070;24.752;2024-02-26T05:47:39;22.98;;;20.55;;
10947;SDS011;5526;42.070;24.752;2024-02-26T05:50:08;25.08;;;20.95;;
10947;SDS011;5526;42.070;24.752;2024-02-26T05:52:36;27.17;;;21.83;;
10947;SDS011;5526;42.070;24.752;2024-02-26T05:55:04;25.02;;;22.55;;
10947;SDS011;5526;42.070;24.752;2024-02-26T05:57:31;23.55;;;21.02;;
10947;SDS011;5526;42.070;24.752;2024-02-26T05:59:59;20.15;;;17.90;;
10947;SDS011;5526;42.070;24.752;2024-02-26T06:02:29;21.95;;;17.63;;
10947;SDS011;5526;42.070;24.752;2024-02-26T06:04:57;16.85;;;15.05;;
10947;SDS011;5526;42.070;24.752;2024-02-26T06:07:25;14.98;;;13.55;;
10947;SDS011;5526;42.070;24.752;2024-02-26T06:09:52;33.42;;;28.10;;
10947;SDS011;5526;42.070;24.752;2024-02-26T06:12:19;33.55;;;29.90;;
10947;SDS011;5526;42.070;24.752;2024-02-26T06:14:46;33.97;;;30.15;;
10947;SDS011;5526;42.070;24.752;2024-02-26T06:17:13;34.95;;;31.25;;
10947;SDS011;5526;42.070;24.752;2024-02-26T06:19:40;33.67;;;29.25;;
10947;SDS011;5526;42.070;24.752;2024-02-26T06:22:09;32.42;;;28.25;;
10947;SDS011;5526;42.070;24.752;2024-02-26T06:24:36;36.13;;;32.47;;
10947;SDS011;5526;42.070;24.752;2024-02-26T06:27:03;39.10;;;35.30;;
10947;SDS011;5526;42.070;24.752;2024-02-26T06:29:30;32.03;;;28.85;;
10947;SDS011;5526;42.070;24.752;2024-02-26T06:31:57;30.95;;;27.00;;
10947;SDS011;5526;42.070;24.752;2024-02-26T06:34:24;30.35;;;27.13;;
10947;SDS011;5526;42.070;24.752;2024-02-26T06:36:51;29.65;;;26.65;;
10947;SDS011;5526;42.070;24.752;2024-02-26T06:39:20;28.52;;;25.60;;
10947;SDS011;5526;42.070;24.752;2024-02-26T06:41:47;28.02;;;25.13;;
10947;SDS011;5526;42.070;24.752;2024-02-26T06:44:14;29.30;;;25.83;;
10947;SDS011;5526;42.070;24.752;2024-02-26T06:46:41;29.17;;;26.08;;
10947;SDS011;5526;42.070;24.752;2024-02-26T06:49:08;29.17;;;26.05;;
10947;SDS011;5526;42.070;24.752;2024-02-26T06:51:35;31.65;;;26.95;;
10947;SDS011;5526;42.070;24.752;2024-02-26T06:54:02;30.60;;;27.52;;
10947;SDS011;5526;42.070;24.752;2024-02-26T06:56:31;31.13;;;27.80;;
10947;SDS011;5526;42.070;24.752;2024-02-26T06:58:58;30.70;;;27.63;;
10947;SDS011;5526;42.070;24.752;2024-02-26T07:01:25;29.88;;;26.30;;
10947;SDS011;5526;42.070;24.752;2024-02-26T07:03:52;29.08;;;26.08;;
10947;SDS011;5526;42.070;24.752;2024-02-26T07:06:19;35.20;;;28.58;;
10947;SDS011;5526;42.070;24.752;2024-02-26T07:08:46;31.48;;;28.08;;
10947;SDS011;5526;42.070;24.752;2024-02-26T07:11:13;31.67;;;28.23;;
10947;SDS011;5526;42.070;24.752;2024-02-26T07:13:42;30.75;;;27.48;;
10947;SDS011;5526;42.070;24.752;2024-02-26T07:16:09;31.50;;;28.27;;
10947;SDS011;5526;42.070;24.752;2024-02-26T07:18:36;32.95;;;29.40;;
10947;SDS011;5526;42.070;24.752;2024-02-26T07:21:04;31.90;;;28.65;;
10947;SDS011;5526;42.070;24.752;2024-02-26T07:23:31;31.73;;;28.27;;
10947;SDS011;5526;42.070;24.752;2024-02-26T07:25:58;31.85;;;28.45;;
10947;SDS011;5526;42.070;24.752;2024-02-26T07:28:26;43.50;;;36.38;;
10947;SDS011;5526;42.070;24.752;2024-02-26T07:30:54;30.77;;;27.45;;
10947;SDS011;5526;42.070;24.752;2024-02-26T07:33:21;28.17;;;25.23;;
10947;SDS011;5526;42.070;24.752;2024-02-26T07:35:48;28.98;;;25.85;;
10947;SDS011;5526;42.070;24.752;2024-02-26T07:38:16;33.33;;;29.20;;
10947;SDS011;5526;42.070;24.752;2024-02-26T07:40:43;29.40;;;26.42;;
10947;SDS011;5526;42.070;24.752;2024-02-26T07:43:10;28.20;;;25.13;;
10947;SDS011;5526;42.070;24.752;2024-02-26T07:45:37;28.50;;;24.98;;
10947;SDS011;5526;42.070;24.752;2024-02-26T07:48:06;26.48;;;23.85;;
10947;SDS011;5526;42.070;24.752;2024-02-26T07:50:33;29.10;;;25.17;;
10947;SDS011;5526;42.070;24.752;2024-02-26T07:53:00;27.52;;;24.48;;
10947;SDS011;5526;42.070;24.752;2024-02-26T07:55:27;27.80;;;24.88;;
10947;SDS011;5526;42.070;24.752;2024-02-26T07:57:54;28.45;;;25.40;;
10947;SDS011;5526;42.070;24.752;2024-02-26T08:00:21;26.48;;;23.77;;
10947;SDS011;5526;42.070;24.752;2024-02-26T08:02:49;29.27;;;26.38;;
10947;SDS011;5526;42.070;24.752;2024-02-26T08:05:17;29.98;;;26.83;;
10947;SDS011;5526;42.070;24.752;2024-02-26T08:07:45;33.88;;;27.80;;
10947;SDS011;5526;42.070;24.752;2024-02-26T08:10:12;25.50;;;22.98;;
10947;SDS011;5526;42.070;24.752;2024-02-26T08:12:39;27.45;;;23.27;;
10947;SDS011;5526;42.070;24.752;2024-02-26T08:15:06;25.30;;;22.73;;
10947;SDS011;5526;42.070;24.752;2024-02-26T08:17:34;24.63;;;22.02;;
10947;SDS011;5526;42.070;24.752;2024-02-26T08:20:02;24.80;;;22.17;;
10947;SDS011;5526;42.070;24.752;2024-02-26T08:22:30;30.27;;;27.08;;
10947;SDS011;5526;42.070;24.752;2024-02-26T08:24:58;31.35;;;28.35;;
10947;SDS011;5526;42.070;24.752;2024-02-26T08:27:25;26.50;;;23.52;;
10947;SDS011;5526;42.070;24.752;2024-02-26T08:29:52;27.25;;;24.42;;
10947;SDS011;5526;42.070;24.752;2024-02-26T08:32:19;29.65;;;24.10;;
10947;SDS011;5526;42.070;24.752;2024-02-26T08:34:46;25.13;;;22.52;;
10947;SDS011;5526;42.070;24.752;2024-02-26T08:37:13;26.17;;;23.38;;
10947;SDS011;5526;42.070;24.752;2024-02-26T08:39:42;27.85;;;24.35;;
10947;SDS011;5526;42.070;24.752;2024-02-26T08:42:11;29.98;;;25.10;;
10947;SDS011;5526;42.070;24.752;2024-02-26T08:44:38;29.30;;;26.23;;
10947;SDS011;5526;42.070;24.752;2024-02-26T08:47:05;30.58;;;25.38;;
10947;SDS011;5526;42.070;24.752;2024-02-26T08:49:32;26.15;;;23.17;;
10947;SDS011;5526;42.070;24.752;2024-02-26T08:51:59;26.35;;;23.60;;
10947;SDS011;5526;42.070;24.752;2024-02-26T08:54:26;26.60;;;23.38;;
10947;SDS011;5526;42.070;24.752;2024-02-26T08:56:55;32.07;;;28.93;;
10947;SDS011;5526;42.070;24.752;2024-02-26T08:59:22;28.83;;;25.92;;
10947;SDS011;5526;42.070;24.752;2024-02-26T09:01:49;29.95;;;26.88;;
10947;SDS011;5526;42.070;24.752;2024-02-26T09:04:16;33.35;;;30.13;;
10947;SDS011;5526;42.070;24.752;2024-02-26T09:06:43;29.60;;;26.70;;
10947;SDS011;5526;42.070;24.752;2024-02-26T09:09:10;25.98;;;23.38;;
10947;SDS011;5526;42.070;24.752;2024-02-26T09:11:37;26.88;;;24.30;;
10947;SDS011;5526;42.070;24.752;2024-02-26T09:14:06;26.50;;;23.85;;
10947;SDS011;5526;42.070;24.752;2024-02-26T09:16:33;24.13;;;21.63;;
10947;SDS011;5526;42.070;24.752;2024-02-26T09:19:00;26.30;;;23.50;;
10947;SDS011;5526;42.070;24.752;2024-02-26T09:21:28;26.40;;;23.77;;
10947;SDS011;5526;42.070;24.752;2024-02-26T09:23:56;24.42;;;21.92;;
10947;SDS011;5526;42.070;24.752;2024-02-26T09:26:23;25.70;;;23.20;;
10947;SDS011;5526;42.070;24.752;2024-02-26T09:28:50;27.30;;;24.55;;
10947;SDS011;5526;42.070;24.752;2024-02-26T09:31:18;26.42;;;23.92;;
10947;SDS011;5526;42.070;24.752;2024-02-26T09:33:45;27.05;;;24.33;;
10947;SDS011;5526;42.070;24.752;2024-02-26T09:36:12;25.65;;;22.95;;
10947;SDS011;5526;42.070;24.752;2024-02-26T09:38:39;56.95;;;42.60;;
10947;SDS011;5526;42.070;24.752;2024-02-26T09:41:06;27.40;;;24.48;;
10947;SDS011;5526;42.070;24.752;2024-02-26T09:43:41;27.20;;;24.45;;
10947;SDS011;5526;42.070;24.752;2024-02-26T09:46:11;28.10;;;25.20;;
10947;SDS011;5526;42.070;24.752;2024-02-26T09:48:40;29.55;;;24.52;;
10947;SDS011;5526;42.070;24.752;2024-02-26T09:51:10;29.92;;;25.08;;
10947;SDS011;5526;42.070;24.752;2024-02-26T09:53:38;27.15;;;23.85;;
10947;SDS011;5526;42.070;24.752;2024-02-26T09:56:08;29.45;;;25.63;;
10947;SDS011;5526;42.070;24.752;2024-02-26T09:58:36;30.48;;;26.10;;
10947;SDS011;5526;42.070;24.752;2024-02-26T10:01:03;29.23;;;25.67;;
10947;SDS011;5526;42.070;24.752;2024-02-26T10:03:38;29.15;;;26.13;;
10947;SDS011;5526;42.070;24.752;2024-02-26T10:06:08;31.42;;;26.42;;
10947;SDS011;5526;42.070;24.752;2024-02-26T10:08:35;27.05;;;24.42;;
10947;SDS011;5526;42.070;24.752;2024-02-26T10:11:03;29.02;;;25.65;;
10947;SDS011;5526;42.070;24.752;2024-02-26T10:13:33;28.33;;;25.15;;
10947;SDS011;5526;42.070;24.752;2024-02-26T10:16:01;27.80;;;25.08;;
10947;SDS011;5526;42.070;24.752;2024-02-26T10:21:17;24.15;;;21.65;;
10947;SDS011;5526;42.070;24.752;2024-02-26T10:23:44;23.20;;;20.98;;
10947;SDS011;5526;42.070;24.752;2024-02-26T10:26:12;20.17;;;17.88;;
10947;SDS011;5526;42.070;24.752;2024-02-26T10:28:41;19.60;;;17.73;;
10947;SDS011;5526;42.070;24.752;2024-02-26T10:31:09;24.08;;;19.27;;
10947;SDS011;5526;42.070;24.752;2024-02-26T10:33:37;20.20;;;18.17;;
10947;SDS011;5526;42.070;24.752;2024-02-26T10:36:05;17.60;;;15.85;;
10947;SDS011;5526;42.070;24.752;2024-02-26T10:38:35;16.48;;;14.82;;
10947;SDS011;5526;42.070;24.752;2024-02-26T10:41:03;17.77;;;15.43;;
10947;SDS011;5526;42.070;24.752;2024-02-26T10:43:30;22.85;;;20.50;;
10947;SDS011;5526;42.070;24.752;2024-02-26T10:45:57;22.60;;;20.50;;
10947;SDS011;5526;42.070;24.752;2024-02-26T10:48:25;20.05;;;18.08;;
10947;SDS011;5526;42.070;24.752;2024-02-26T10:50:52;19.75;;;17.60;;
10947;SDS011;5526;42.070;24.752;2024-02-26T10:53:21;20.27;;;18.17;;
10947;SDS011;5526;42.070;24.752;2024-02-26T10:55:51;21.30;;;19.05;;
10947;SDS011;5526;42.070;24.752;2024-02-26T10:58:21;21.13;;;18.88;;
10947;SDS011;5526;42.070;24.752;2024-02-26T11:00:50;19.48;;;17.13;;
10947;SDS011;5526;42.070;24.752;2024-02-26T11:03:18;22.30;;;19.25;;
10947;SDS011;5526;42.070;24.752;2024-02-26T11:05:48;19.13;;;17.15;;
10947;SDS011;5526;42.070;24.752;2024-02-26T11:08:15;19.67;;;17.63;;
10947;SDS011;5526;42.070;24.752;2024-02-26T11:10:45;19.13;;;17.00;;
10947;SDS011;5526;42.070;24.752;2024-02-26T11:13:17;18.45;;;16.55;;
10947;SDS011;5526;42.070;24.752;2024-02-26T11:15:45;16.70;;;14.85;;
10947;SDS011;5526;42.070;24.752;2024-02-26T11:18:14;17.20;;;15.45;;
10947;SDS011;5526;42.070;24.752;2024-02-26T11:20:42;16.40;;;14.70;;
10947;SDS011;5526;42.070;24.752;2024-02-26T11:23:11;17.83;;;16.17;;
10947;SDS011;5526;42.070;24.752;2024-02-26T11:25:38;17.05;;;15.20;;
10947;SDS011;5526;42.070;24.752;2024-02-26T11:28:06;16.08;;;14.35;;
10947;SDS011;5526;42.070;24.752;2024-02-26T11:30:40;15.45;;;14.05;;
10947;SDS011;5526;42.070;24.752;2024-02-26T11:33:11;16.73;;;15.15;;
10947;SDS011;5526;42.070;24.752;2024-02-26T11:35:39;15.85;;;14.35;;
10947;SDS011;5526;42.070;24.752;2024-02-26T11:38:06;16.30;;;14.55;;
10947;SDS011;5526;42.070;24.752;2024-02-26T11:40:37;20.63;;;17.90;;
10947;SDS011;5526;42.070;24.752;2024-02-26T11:43:06;17.83;;;15.93;;
10947;SDS011;5526;42.070;24.752;2024-02-26T11:45:53;15.32;;;13.73;;
10947;SDS011;5526;42.070;24.752;2024-02-26T11:48:24;16.80;;;15.02;;
10947;SDS011;5526;42.070;24.752;2024-02-26T11:50:52;16.67;;;15.02;;
10947;SDS011;5526;42.070;24.752;2024-02-26T11:53:21;16.00;;;14.60;;
10947;SDS011;5526;42.070;24.752;2024-02-26T11:58:46;16.63;;;15.02;;
10947;SDS011;5526;42.070;24.752;2024-02-26T12:04:06;16.13;;;14.52;;
10947;SDS011;5526;42.070;24.752;2024-02-26T12:06:44;19.45;;;15.80;;
10947;SDS011;5526;42.070;24.752;2024-02-26T12:09:12;16.38;;;14.68;;
10947;SDS011;5526;42.070;24.752;2024-02-26T12:11:41;20.13;;;15.52;;
10947;SDS011;5526;42.070;24.752;2024-02-26T12:14:09;15.57;;;14.18;;
10947;SDS011;5526;42.070;24.752;2024-02-26T12:16:37;17.58;;;14.82;;
10947;SDS011;5526;42.070;24.752;2024-02-26T12:19:08;15.93;;;14.32;;
10947;SDS011;5526;42.070;24.752;2024-02-26T12:21:36;15.30;;;13.82;;
10947;SDS011;5526;42.070;24.752;2024-02-26T12:24:10;16.63;;;14.23;;
10947;SDS011;5526;42.070;24.752;2024-02-26T12:26:38;15.93;;;14.05;;
10947;SDS011;5526;42.070;24.752;2024-02-26T12:29:06;14.98;;;13.45;;
10947;SDS011;5526;42.070;24.752;2024-02-26T12:31:34;15.52;;;14.00;;
10947;SDS011;5526;42.070;24.752;2024-02-26T12:34:07;15.18;;;13.73;;
10947;SDS011;5526;42.070;24.752;2024-02-26T12:36:35;16.93;;;15.33;;
10947;SDS011;5526;42.070;24.752;2024-02-26T12:39:04;15.30;;;13.88;;
10947;SDS011;5526;42.070;24.752;2024-02-26T12:41:32;17.40;;;14.65;;
10947;SDS011;5526;42.070;24.752;2024-02-26T12:43:59;16.95;;;15.25;;
10947;SDS011;5526;42.070;24.752;2024-02-26T12:46:27;16.40;;;14.85;;
10947;SDS011;5526;42.070;24.752;2024-02-26T12:48:56;18.08;;;14.57;;
10947;SDS011;5526;42.070;24.752;2024-02-26T12:51:25;17.33;;;15.48;;
10947;SDS011;5526;42.070;24.752;2024-02-26T12:53:54;16.75;;;14.63;;
10947;SDS011;5526;42.070;24.752;2024-02-26T12:56:22;14.48;;;13.07;;
10947;SDS011;5526;42.070;24.752;2024-02-26T12:58:50;15.70;;;12.75;;
10947;SDS011;5526;42.070;24.752;2024-02-26T13:01:19;15.85;;;13.10;;
10947;SDS011;5526;42.070;24.752;2024-02-26T13:03:49;15.02;;;12.85;;
10947;SDS011;5526;42.070;24.752;2024-02-26T13:06:17;14.32;;;12.82;;
10947;SDS011;5526;42.070;24.752;2024-02-26T13:08:48;14.93;;;13.32;;
10947;SDS011;5526;42.070;24.752;2024-02-26T13:11:15;13.88;;;12.48;;
10947;SDS011;5526;42.070;24.752;2024-02-26T13:13:47;13.45;;;12.05;;
10947;SDS011;5526;42.070;24.752;2024-02-26T13:16:15;15.40;;;12.10;;
10947;SDS011;5526;42.070;24.752;2024-02-26T13:18:42;12.40;;;11.15;;
10947;SDS011;5526;42.070;24.752;2024-02-26T13:21:10;11.85;;;9.93;;
10947;SDS011;5526;42.070;24.752;2024-02-26T13:23:38;14.27;;;11.00;;
10947;SDS011;5526;42.070;24.752;2024-02-26T13:26:08;12.20;;;11.00;;
10947;SDS011;5526;42.070;24.752;2024-02-26T13:28:38;16.00;;;12.20;;
10947;SDS011;5526;42.070;24.752;2024-02-26T13:31:06;13.20;;;10.52;;
10947;SDS011;5526;42.070;24.752;2024-02-26T13:33:33;12.38;;;11.07;;
10947;SDS011;5526;42.070;24.752;2024-02-26T13:36:00;12.45;;;10.75;;
10947;SDS011;5526;42.070;24.752;2024-02-26T13:38:27;12.23;;;11.02;;
10947;SDS011;5526;42.070;24.752;2024-02-26T13:40:55;12.35;;;10.25;;
10947;SDS011;5526;42.070;24.752;2024-02-26T13:43:24;12.45;;;11.13;;
10947;SDS011;5526;42.070;24.752;2024-02-26T13:45:51;16.15;;;12.15;;
10947;SDS011;5526;42.070;24.752;2024-02-26T13:48:18;15.00;;;11.70;;
10947;SDS011;5526;42.070;24.752;2024-02-26T13:50:45;24.50;;;13.60;;
10947;SDS011;5526;42.070;24.752;2024-02-26T13:53:12;13.40;;;11.90;;
10947;SDS011;5526;42.070;24.752;2024-02-26T13:55:40;13.35;;;11.75;;
10947;SDS011;5526;42.070;24.752;2024-02-26T13:58:08;12.77;;;11.48;;
10947;SDS011;5526;42.070;24.752;2024-02-26T14:00:40;20.42;;;12.55;;
10947;SDS011;5526;42.070;24.752;2024-02-26T14:03:07;12.88;;;11.55;;
10947;SDS011;5526;42.070;24.752;2024-02-26T14:05:34;13.75;;;12.20;;
10947;SDS011;5526;42.070;24.752;2024-02-26T14:08:01;13.38;;;12.07;;
10947;SDS011;5526;42.070;24.752;2024-02-26T14:10:29;12.73;;;11.00;;
10947;SDS011;5526;42.070;24.752;2024-02-26T14:12:57;15.48;;;10.80;;
10947;SDS011;5526;42.070;24.752;2024-02-26T14:15:24;10.98;;;9.88;;
10947;SDS011;5526;42.070;24.752;2024-02-26T14:17:53;10.48;;;9.15;;
10947;SDS011;5526;42.070;24.752;2024-02-26T14:20:21;9.00;;;8.05;;
10947;SDS011;5526;42.070;24.752;2024-02-26T14:22:49;10.10;;;7.45;;
10947;SDS011;5526;42.070;24.752;2024-02-26T14:25:18;10.90;;;7.00;;
10947;SDS011;5526;42.070;24.752;2024-02-26T14:27:46;16.95;;;8.98;;
10947;SDS011;5526;42.070;24.752;2024-02-26T14:30:14;11.00;;;8.15;;
10947;SDS011;5526;42.070;24.752;2024-02-26T14:32:42;9.07;;;8.18;;